首页
METAR-TAF:

METAR-TAF

机场 :

Livingston County Spencer J. Hardy Airport

Howell, 密歇根州, 美国

纬度: 42-37-46N, 经度: 083-59-03W, 海拔: 293米

当前天气观测

该预报发布于24分钟前的16:35 UTC
风速4节,风向西转西南
温度 4°C
湿度 81%
气压 1022 hPa
能見度: 8.0公里
散云层高于1300英尺
阴天层高于2800英尺

METAR: KOZW 201635Z AUTO 25004KT 5SM HZ SCT013 OVC028 04/01 A3019 RMK AO2 T00440013

时间: 11:59 (16:59 UTC)


TAF: 丢失

超过4000个机场的气象观测和天气预报(METAR&TAF报告)。

可查询的气象台以黄色和红色小点在地图上表示。

将鼠标移到小点上方,可查看气象台名称。

然后点击查看天气观测和预报。

如需切换地图:点击带黑十字的绿色按钮放大地图;点击带横线的绿色按钮缩小地图;或者点击绿色箭头查看邻近地区的地图。


METAR-TAF: